Home > Products > Valid Products > TAF

000
FTUS46 KPDT 271700
TAFPSC
TAF
KPSC 271720Z 2718/2818 21010KT P6SM OVC080
     FM280300 22007KT P6SM OVC080
     FM280700 21012KT P6SM -SHRA SCT050 OVC080
     FM281500 21014G28KT P6SM FEW080 SCT200=



000
FTUS46 KPDT 271700
TAFDLS
TAF
KDLS 271720Z 2718/2818 33005KT P6SM -SHRA SCT040 OVC070
     FM280000 30004KT P6SM -RA SCT040 OVC050
     FM281500 VRB04KT P6SM -RA BKN040=



000
FTUS46 KPDT 271700
TAFALW
TAF
KALW 271720Z 2718/2818 16005KT P6SM OVC080
     FM280000 20011KT P6SM VCSH OVC050
     FM280600 19012KT P6SM -RA BKN035 OVC045
     FM280800 20012KT 2SM RA BR BKN008 OVC015
      TEMPO 2808/2812 1/2SM +RA FG OVC004=



000
FTUS46 KPDT 271700
TAFYKM
TAF
KYKM 271720Z 2718/2818 19015G25KT P6SM SCT070
     FM272100 21008KT P6SM SCT070
     FM280000 16006KT P6SM BKN100
     FM280300 26006KT P6SM SCT070 BKN090
     FM281500 26005KT P6SM -SHRA BKN090=



000
FTUS46 KPDT 271700
TAFPDT
TAF
KPDT 271720Z 2718/2818 22010KT P6SM OVC070
     FM280000 21008KT P6SM VCSH OVC050
     FM280600 19008KT P6SM -RA BKN035 OVC045
      TEMPO 2807/2810 RA BKN025 OVC035
     FM281500 21012G22KT P6SM -SHRA BKN040=



000
FTUS46 KPDT 271700
TAFRDM
TAF
KRDM 271720Z 2718/2818 20012G20KT P6SM -SHRA BKN090
     FM272100 21012G20KT P6SM -RA BKN060 OVC080
     FM280300 19008KT P6SM -RA OVC050
     FM281200 20012KT P6SM -RA OVC050=



000
FTUS46 KPDT 271400 AAA
TAFPDT
TAF AMD
KPDT 271421Z 2714/2812 22010KT P6SM SCT080 BKN130
     FM271700 22010KT P6SM OVC070
     FM280000 21008KT P6SM VCSH OVC050
     FM280600 19008KT P6SM -RA BKN035 OVC045
      TEMPO 2807/2810 RA BKN025 OVC035=



000
FTUS46 KPDT 271300 AAA
TAFALW
TAF AMD
KALW 271339Z 2714/2812 16005KT P6SM OVC080
     FM280000 20011KT P6SM VCSH OVC050
     FM280600 19012KT P6SM -RA BKN035 OVC045
     FM280800 20012KT 2SM RA BR BKN008 OVC015
      TEMPO 2808/2812 1/2SM +RA FG OVC004=



000
FTUS46 KPDT 271100
TAFPDT
TAF
KPDT 271140Z 2712/2812 23009KT P6SM OVC090
     FM271500 21011KT P6SM OVC070
     FM272000 20009KT P6SM -SHRA OVC050
     FM280100 18008KT P6SM OVC050=



000
FTUS46 KPDT 271100
TAFDLS
TAF
KDLS 271140Z 2712/2812 00000KT P6SM OVC080
     FM271500 VRB05KT P6SM -SHRA SCT040 OVC060
     FM280000 30004KT P6SM -RA OVC050=



000
FTUS46 KPDT 271100
TAFYKM
TAF
KYKM 271140Z 2712/2812 VRB04KT P6SM BKN070 BKN090
     FM271800 21008KT P6SM SCT070
     FM280000 16006KT P6SM BKN100=



000
FTUS46 KPDT 271100
TAFPSC
TAF
KPSC 271140Z 2712/2812 17004KT 6SM BR SCT002 SCT100
     FM271400 21006KT 6SM BR FEW003 SCT120
     FM271600 21010KT P6SM OVC080
     FM280300 22007KT P6SM OVC100=



000
FTUS46 KPDT 271100
TAFRDM
TAF
KRDM 271140Z 2712/2812 18012G19KT P6SM SCT070 SCT110
     FM272100 21012G20KT P6SM -RA BKN060 OVC080
     FM280300 21008KT P6SM -RA OVC050=



000
FTUS46 KPDT 271100
TAFALW
TAF
KALW 271140Z 2712/2812 18013G20KT P6SM BKN050 OVC070
     FM272000 18011KT P6SM -SHRA OVC050
     FM280300 19009KT P6SM -RA BKN040 OVC050=



000
FTUS46 KPDT 271100 AAA
TAFRDM
TAF AMD
KRDM 271138Z 2712/2806 18012G19KT P6SM SCT070 SCT110
     FM272100 21012G20KT P6SM -RA BKN060 OVC080
     FM280300 21008KT P6SM -RA OVC050=



000
FTUS46 KPDT 271100 AAA
TAFYKM
TAF AMD
KYKM 271127Z 2711/2806 VRB04KT P6SM BKN070 BKN090
     FM271800 21008KT P6SM SCT070
     FM280000 16006KT P6SM BKN100=



000
FTUS46 KPDT 271000 AAD
TAFPSC
TAF AMD
KPSC 271053Z 2711/2806 17004KT 6SM BR SCT002 SCT100
     FM271400 21006KT 6SM BR FEW003 SCT120
     FM271600 21010KT P6SM OVC080
     FM280300 22007KT P6SM OVC100=



000
FTUS46 KPDT 270900 AAC
TAFPSC
TAF AMD
KPSC 270946Z 2710/2806 17004KT 3SM BR OVC002
      TEMPO 2710/2714 6SM BR SCT003 SCT100
     FM271400 21009KT 5SM BR OVC003
     FM271600 21013KT P6SM OVC080
     FM280300 22007KT P6SM OVC100=



000
FTUS46 KPDT 270800 AAB
TAFPSC
TAF AMD
KPSC 270832Z 2709/2806 13003KT 2SM BR OVC002
      TEMPO 2709/2713 00000KT 1SM BR VV002
     FM271300 21009KT 3SM BR OVC003
     FM271500 21013KT P6SM OVC080
     FM280300 22007KT P6SM OVC100=



000
FTUS46 KPDT 270600 AAA
TAFPSC
TAF AMD
KPSC 270638Z 2707/2806 VRB03KT 1/2SM FG VV002
      TEMPO 2707/2710 1/4SM FG
     FM271200 21009KT 3SM BR OVC003
     FM271500 21013KT P6SM OVC080
     FM280300 22007KT P6SM OVC100=



000
FTUS46 KPDT 270500
TAFYKM
TAF
KYKM 270524Z 2706/2806 28006KT 5SM BR SCT010 BKN060
     FM271200 27003KT 2SM BR OVC003
     FM271500 27004KT 3SM BR OVC003
     FM272100 21008KT P6SM SCT050
     FM280000 16006KT P6SM BKN100=



000
FTUS46 KPDT 270500
TAFDLS
TAF
KDLS 270524Z 2706/2806 15004KT P6SM SCT110 BKN150
     FM270900 30005KT P6SM BKN060 OVC080
     FM271500 VRB05KT P6SM -SHRA SCT040 OVC060
     FM280000 30004KT P6SM -RA OVC050=



000
FTUS46 KPDT 270500
TAFPSC
TAF
KPSC 270524Z 2706/2806 VRB03KT 1/2SM FG VV002
     FM271200 21009KT 3SM BR OVC003
     FM271500 21013KT P6SM OVC080
     FM280300 22007KT P6SM OVC100=



000
FTUS46 KPDT 270500
TAFRDM
TAF
KRDM 270524Z 2706/2806 18011KT P6SM BKN150
     FM271200 18012G19KT P6SM BKN080
     FM272000 21011KT P6SM -SHRA BKN060 OVC080
     FM280300 21008KT P6SM -RA OVC050=



000
FTUS46 KPDT 270500
TAFPDT
TAF
KPDT 270524Z 2706/2806 19007KT P6SM BKN150
     FM270900 18009KT P6SM OVC100
     FM271500 21011KT P6SM OVC070
     FM272000 20009KT P6SM -SHRA OVC050
     FM280100 18008KT P6SM OVC050=



000
FTUS46 KPDT 270500
TAFALW
TAF
KALW 270524Z 2706/2806 15006KT P6SM BKN150
     FM270900 18011KT P6SM SCT070 OVC100
     FM271200 18013G20KT P6SM BKN050 OVC070
     FM272000 18011KT P6SM -SHRA OVC050
     FM280300 19009KT P6SM -RA BKN040 OVC050=



000
FTUS46 KPDT 270300 AAA
TAFYKM
TAF AMD
KYKM 270301Z 2703/2724 27004KT 6SM BR FEW003 BKN060
     FM270500 27002KT 2SM BR OVC003
     FM271500 27004KT 4SM BR OVC003
     FM272100 21008KT P6SM SCT050=



000
FTUS46 KPDT 270100 AAA
TAFPSC
TAF AMD
KPSC 270150Z 2702/2724 29005KT 2SM BR OVC003
      TEMPO 2702/2704 1/4SM FG VV002
     FM270500 20008KT 1SM BR OVC002
     FM271500 21013KT P6SM OVC100=



000
FTUS46 KPDT 262300
TAFALW
TAF
KALW 262326Z 2700/2724 28004KT P6SM BKN200
     FM270600 18009KT P6SM BKN150
     FM270900 18011KT P6SM OVC100
     FM271200 19013KT P6SM OVC070=



000
FTUS46 KPDT 262300
TAFRDM
TAF
KRDM 262326Z 2700/2724 08007KT P6SM BKN200
     FM270600 15007KT P6SM BKN150
     FM271200 17010KT P6SM BKN080=



000
FTUS46 KPDT 262300
TAFDLS
TAF
KDLS 262326Z 2700/2724 VRB03KT P6SM BKN200
     FM270300 VRB03KT P6SM BKN150
     FM270900 30005KT P6SM OVC080
     FM271500 VRB05KT P6SM -SHRA SCT040 OVC060=



000
FTUS46 KPDT 262300
TAFYKM
TAF
KYKM 262326Z 2700/2724 20004KT P6SM SCT060
     FM270300 27004KT 2SM BR OVC003
     FM271500 27004KT 4SM BR OVC003
     FM272100 21008KT P6SM SCT050=



000
FTUS46 KPDT 262300
TAFPDT
TAF
KPDT 262326Z 2700/2724 VRB05KT P6SM BKN200
     FM270600 17008KT P6SM BKN150
     FM270900 17010KT P6SM OVC100
     FM271500 21010KT P6SM OVC070=



000
FTUS46 KPDT 262300
TAFPSC
TAF
KPSC 262326Z 2700/2724 30006KT 2SM BR OVC004
     FM270500 20008KT 1SM BR OVC002
     FM271500 21013KT P6SM OVC100=



000
FTUS46 KPDT 262100 AAB
TAFYKM
TAF AMD
KYKM 262155Z 2622/2718 22004KT 6SM BR BKN004
     FM270200 VRB03KT 3SM BR OVC003
     FM270500 27004KT 1SM BR OVC002=



000
FTUS46 KPDT 262100 AAB
TAFYKM
TAF AMD
KYKM 262155Z 2622/2718 22004KT 6SM BR BKN004
     FM270200 VRB03KT 3SM BR OVC003
     FM270500 27004KT 1SM BR OVC002=



000
FTUS46 KPDT 262000 AAA
TAFPSC
TAF AMD
KPSC 262033Z 2621/2718 35004KT 1/2SM FG VV002
      TEMPO 2621/2623 2SM BR OVC003
     FM262300 20007KT 5SM BR OVC006
     FM271200 21012KT P6SM OVC100=



000
FTUS46 KPDT 262000 AAA
TAFYKM
TAF AMD
KYKM 262033Z 2621/2718 VRB03KT 1SM BR VV002
      TEMPO 2621/2623 4SM BR OVC003
     FM262300 15003KT 5SM BR OVC010
     FM270200 VRB03KT 3SM BR OVC003
     FM270500 27004KT 1SM BR OVC002=



000
FTUS46 KPDT 261700
TAFALW
TAF
KALW 261722Z 2618/2718 20010KT P6SM BKN200
     FM270500 18010KT P6SM BKN150
     FM270900 18012KT P6SM OVC100
     FM271400 18012KT P6SM OVC070=



000
FTUS46 KPDT 261700
TAFYKM
TAF
KYKM 261722Z 2618/2718 VRB03KT 1/4SM FG VV002
      TEMPO 2618/2620 3SM BR OVC003
     FM262000 15003KT 5SM BR OVC010
     FM270200 VRB03KT 3SM BR OVC003
     FM270500 27004KT 1SM BR OVC002=



000
FTUS46 KPDT 261700
TAFDLS
TAF
KDLS 261722Z 2618/2718 11005KT P6SM SCT200
     FM262200 33005KT P6SM BKN200
     FM270300 VRB04KT P6SM BKN120
     FM271200 30005KT P6SM OVC080
     FM271500 30005KT P6SM -SHRA SCT040 OVC060=



000
FTUS46 KPDT 261700
TAFPSC
TAF
KPSC 261722Z 2618/2718 35004KT 1/2SM FG VV002
      TEMPO 2618/2620 2SM BR OVC003
     FM262000 20007KT 5SM BR OVC006
     FM271200 21012KT P6SM OVC100=



000
FTUS46 KPDT 261700
TAFPDT
TAF
KPDT 261722Z 2618/2718 20008KT P6SM BKN200
     FM270300 16008KT P6SM BKN150
     FM270800 18010KT P6SM OVC100=



000
FTUS46 KPDT 261700
TAFRDM
TAF
KRDM 261722Z 2618/2718 08005KT P6SM BKN200
     FM270200 16006KT P6SM BKN150
     FM270800 16008KT P6SM BKN100=



000
FTUS46 KPDT 261600 AAC
TAFYKM
TAF AMD
KYKM 261603Z 2616/2712 VRB03KT 2SM BR OVC005
      TEMPO 2616/2618 1/4SM FG OVC002
     FM261800 VRB03KT 3SM BR BKN011 BKN200
     FM262000 19003KT P6SM BKN200
     FM270200 00000KT 3SM BR SCT003 BKN150
     FM270500 00000KT 1SM BR OVC002=



000
FTUS46 KPDT 261400 AAA
TAFPSC
TAF AMD
KPSC 261435Z 2615/2712 00000KT 2SM BR VV003
      TEMPO 2615/2617 3/4SM BR
     FM261700 VRB04KT 4SM BR SCT003 OVC007
     FM261800 20006KT 6SM BR SCT011 OVC200
     FM261900 20008KT P6SM BKN200 OVC250
     FM270200 18005KT P6SM BKN150 OVC200=



000
FTUS46 KPDT 261400 AAB
TAFYKM
TAF AMD
KYKM 261411Z 2614/2712 VRB03KT 2SM BR OVC005
      TEMPO 2614/2618 1SM BR OVC002
     FM261800 VRB03KT 3SM BR BKN011 BKN200
     FM262000 19003KT P6SM BKN200
     FM270200 00000KT 3SM BR SCT003 BKN150
     FM270500 00000KT 1SM BR OVC002=



000
FTUS46 KPDT 261300 AAA
TAFRDM
TAF AMD
KRDM 261353Z 2614/2712 14004KT P6SM SCT200
     FM261800 16007KT P6SM BKN200
     FM270500 15006KT P6SM BKN150
     FM270800 14004KT P6SM SCT100 BKN130=



000
FTUS46 KPDT 261100 AAA
TAFYKM
TAF AMD
KYKM 261152Z 2612/2706 VRB04KT P6SM OVC009
     FM261800 VRB03KT P6SM SCT012 BKN200 OVC250
     FM262000 19003KT P6SM BKN200
     FM270200 00000KT 3SM BR SCT003 BKN150
     FM270500 00000KT 1SM BR OVC002=



000
FTUS46 KPDT 261100
TAFYKM
TAF
KYKM 261140Z 2612/2712 27006KT P6SM BKN020 BKN050
     FM261700 24006KT P6SM SCT050 BKN200=



000
FTUS46 KPDT 261100
TAFALW
TAF
KALW 261140Z 2612/2712 20014KT P6SM FEW060 SCT130 BKN200
     FM261600 20009KT P6SM SCT150 BKN200
     FM261800 21010KT P6SM SCT022 BKN200
     FM262000 21010KT P6SM SCT040 BKN200=



000
FTUS46 KPDT 261100
TAFDLS
TAF
KDLS 261140Z 2612/2712 VRB04KT P6SM SCT050 OVC070
     FM261700 31006KT P6SM SCT050 BKN200=



000
FTUS46 KPDT 261100
TAFRDM
TAF
KRDM 261140Z 2612/2712 13004KT 6SM BR FEW002 SCT200
      TEMPO 2612/2616 3SM BR SCT002
     FM261600 19007KT P6SM SCT060 BKN200=



000
FTUS46 KPDT 261100
TAFPDT
TAF
KPDT 261140Z 2612/2712 20009KT P6SM SCT050 BKN200
     FM261800 23008KT P6SM SCT050 BKN200=



000
FTUS46 KPDT 261100
TAFPSC
TAF
KPSC 261140Z 2612/2712 00000KT 2SM BR OVC005
      TEMPO 2612/2616 1SM BR VV002
     FM261600 VRB04KT 3SM BR OVC008
     FM261800 21007KT P6SM SCT011 OVC200
     FM262000 20009KT P6SM BKN200 OVC250
     FM270200 18005KT P6SM BKN150 OVC200=



000
FTUS46 KPDT 261100 AAA
TAFPSC
TAF AMD
KPSC 261137Z 2612/2706 00000KT 2SM BR OVC005
      TEMPO 2612/2616 1SM BR VV002
     FM261600 VRB04KT 3SM BR OVC008
     FM261800 21007KT P6SM SCT011 OVC200
     FM262000 20009KT P6SM BKN200 OVC250
     FM270200 18005KT P6SM BKN150 OVC200=



000
FTUS46 KPDT 261100 AAB
TAFALW
TAF AMD
KALW 261117Z 2611/2706 19014KT P6SM SCT060 BKN200
     FM261600 20009KT P6SM BKN025 BKN200
     FM261800 21010KT P6SM OVC022
     FM262000 21010KT P6SM SCT040 BKN200=



000
FTUS46 KPDT 260800 AAA
TAFPSC
TAF AMD
KPSC 260828Z 2608/2706 00000KT P6SM OVC008
     FM261600 VRB04KT P6SM OVC015
     FM261800 21007KT P6SM SCT015 OVC200
     FM262000 20009KT P6SM BKN200 OVC250
     FM270200 18005KT P6SM BKN150 OVC200=



000
FTUS46 KPDT 260800 AAA
TAFALW
TAF AMD
KALW 260800Z 2608/2706 21004KT 1/4SM FG VV001
     FM261600 VRB03KT 1SM BR OVC001
      TEMPO 2616/2618 1/2SM FG BKN002 OVC040
     FM261800 21009KT 3SM BR SCT002 BKN040
     FM262000 20009KT P6SM SCT040 BKN200=



000
FTUS46 KPDT 260600 AAA
TAFYKM
TAF AMD
KYKM 260648Z 2607/2706 27006KT P6SM BKN020 BKN050
     FM261700 24006KT P6SM SCT050 BKN200=



000
FTUS46 KPDT 260500
TAFRDM
TAF
KRDM 260530Z 2606/2706 18005KT P6SM BKN060
     FM261000 18005KT P6SM SCT060
     FM262000 19007KT P6SM SCT060 BKN200=



000
FTUS46 KPDT 260500
TAFALW
TAF
KALW 260530Z 2606/2706 21009KT 1/2SM FG OVC002
     FM261600 21009KT 3SM BR SCT002 BKN040
     FM261800 20009KT P6SM SCT040 BKN200=



000
FTUS46 KPDT 260500
TAFPDT
TAF
KPDT 260530Z 2606/2706 24009KT P6SM BKN050
     FM261800 23008KT P6SM SCT050 BKN200=



000
FTUS46 KPDT 260500
TAFYKM
TAF
KYKM 260530Z 2606/2706 27006KT P6SM BKN050
     FM261700 24006KT P6SM SCT050 BKN200=



000
FTUS46 KPDT 260500
TAFDLS
TAF
KDLS 260530Z 2606/2706 30005KT P6SM BKN050
     FM261700 31006KT P6SM SCT050 BKN200=



000
FTUS46 KPDT 260500
TAFPSC
TAF
KPSC 260530Z 2606/2706 25007KT P6SM OVC015
     FM261700 21007KT P6SM SCT040 BKN200=



000
FTUS46 KPDT 260400 AAA
TAFPSC
TAF AMD
KPSC 260412Z 2604/2624 32006KT P6SM OVC015
     FM261200 22006KT P6SM SCT040 BKN060
     FM261600 22008KT P6SM SCT060 BKN150=



000
FTUS46 KPDT 260400 AAA
TAFPSC
TAF AMD
KPSC 260412Z 2604/2624 32006KT P6SM OVC015
     FM261200 22006KT P6SM SCT040 BKN060
     FM261600 22008KT P6SM SCT060 BKN150=



000
FTUS46 KPDT 260100 AAA
TAFALW
TAF AMD
KALW 260155Z 2602/2624 23007KT 2SM BR OVC003
      TEMPO 2602/2606 1/2SM FG OVC002
     FM260800 20008KT 3SM BR BKN003 OVC025
     FM261400 20008KT 5SM BR SCT003 BKN025=



000
FTUS46 KPDT 252300
TAFALW
TAF
KALW 252320Z 2600/2624 23010KT 3SM -RA BR OVC003
     FM260200 20010KT 3SM BR VCSH OVC003
     FM260800 20008KT 3SM BR BKN003 OVC025
     FM261400 20008KT 5SM BR SCT003 BKN025=



000
FTUS46 KPDT 252300
TAFYKM
TAF
KYKM 252320Z 2600/2624 VRB05KT P6SM BKN070 BKN120
     FM260200 27005KT P6SM SCT070 SCT150
     FM260600 27003KT 3SM BR SCT004 SCT150
     FM261300 VRB03KT P6SM FEW004 SCT150=



000
FTUS46 KPDT 252300
TAFDLS
TAF
KDLS 252320Z 2600/2624 30010G20KT P6SM VCSH OVC045
     FM260600 29005KT P6SM BKN045 BKN100
     FM261200 VRB03KT 5SM BR SCT020 BKN045
     FM261700 VRB03KT P6SM BKN045 BKN150=



000
FTUS46 KPDT 252300
TAFRDM
TAF
KRDM 252320Z 2600/2624 22012KT P6SM BKN050 BKN150
     FM260400 16008KT P6SM FEW050 BKN180
     FM261000 16005KT P6SM SCT180=



000
FTUS46 KPDT 252300
TAFPDT
TAF
KPDT 252320Z 2600/2624 27012KT P6SM OVC040
     FM260200 24010KT P6SM BKN040 OVC060
     FM261200 20006KT P6SM SCT040 BKN060=



000
FTUS46 KPDT 252300
TAFPSC
TAF
KPSC 252320Z 2600/2624 30010KT P6SM VCSH BKN015 OVC040
     FM260300 25008KT P6SM SCT015 BKN040
     FM260800 22006KT P6SM SCT040 BKN060
     FM261400 22008KT P6SM SCT060 BKN150=



000
FTUS46 KPDT 252200 AAA
TAFPSC
TAF AMD
KPSC 252208Z 2522/2618 30007KT P6SM VCSH BKN020 OVC060
     FM260300 25011KT P6SM SCT020 BKN060
     FM260800 22012G20KT P6SM BKN060=



000
FTUS46 KPDT 252100 AAC
TAFALW
TAF AMD
KALW 252114Z 2521/2618 20012KT P6SM VCSH BKN010 OVC020
      TEMPO 2521/2524 3SM -RA BKN005
     FM260000 23014KT P6SM VCSH BKN010 OVC025
     FM260200 20014G22KT P6SM BKN025 OVC035
     FM260600 20018G25KT P6SM BKN029 BKN050=



000
FTUS46 KPDT 252000 AAB
TAFALW
TAF AMD
KALW 252052Z 2521/2618 20012KT P6SM VCSH BKN035 OVC045
      TEMPO 2521/2524 3SM -RA BKN010 BKN020
     FM260000 23014KT P6SM VCSH BKN020 OVC040
     FM260200 20014G22KT P6SM BKN025 OVC035
     FM260600 20018G25KT P6SM BKN029 BKN050=



000
FTUS46 KPDT 252000 AAA
TAFPSC
TAF AMD
KPSC 252022Z 2520/2618 24007KT P6SM VCSH BKN030 OVC060
     FM260300 24011KT P6SM SCT030 BKN060
     FM260800 22012G20KT P6SM BKN060=



000
FTUS46 KPDT 252000 AAA
TAFALW
TAF AMD
KALW 252021Z 2520/2618 20012KT P6SM VCSH BKN035 OVC045
      TEMPO 2520/2524 -RA SCT010 BKN020
     FM260000 23014KT P6SM VCSH BKN020 OVC040
     FM260200 20014G22KT P6SM BKN025 OVC035
     FM260600 20018G25KT P6SM BKN029 BKN050=



000
FTUS46 KPDT 251700
TAFPSC
TAF
KPSC 251720Z 2518/2618 24007KT P6SM VCSH BKN050 OVC070
     FM260300 24011KT P6SM SCT040 BKN060
     FM260800 22012G20KT P6SM BKN060=



000
FTUS46 KPDT 251700
TAFYKM
TAF
KYKM 251720Z 2518/2618 VRB05KT P6SM BKN070 BKN110
     FM252000 30008KT P6SM BKN050 BKN120
     FM260200 27006KT P6SM SCT050 SCT200
     FM260600 27005KT 3SM BR SCT004 SCT200=



000
FTUS46 KPDT 251700
TAFPDT
TAF
KPDT 251720Z 2518/2618 26017G25KT P6SM VCSH BKN040 BKN050 OVC070
     FM252100 27018G28KT P6SM SCT040 BKN050 OVC080
     FM260200 24014G24KT P6SM BKN040 OVC090
     FM260600 22013KT P6SM BKN045 BKN060=



000
FTUS46 KPDT 251700
TAFALW
TAF
KALW 251720Z 2518/2618 20012KT 6SM -RA BR BKN035 OVC045
      TEMPO 2518/2520 2SM RA BR SCT020 BKN030
     FM260000 23014KT P6SM VCSH BKN020 OVC040
     FM260200 20014G22KT P6SM BKN025 OVC035
     FM260600 20018G25KT P6SM BKN029 BKN050=



000
FTUS46 KPDT 251700
TAFRDM
TAF
KRDM 251720Z 2518/2618 26012G20KT P6SM BKN040 BKN150
     FM252000 26015G25KT P6SM SCT040 BKN150
     FM260400 16008KT P6SM BKN180
     FM261000 16005KT P6SM SCT180=



000
FTUS46 KPDT 251700
TAFDLS
TAF
KDLS 251720Z 2518/2618 30008G15KT P6SM SCT030 OVC050
     FM252100 29010G20KT P6SM VCSH BKN050 OVC100
     FM260600 29005KT P6SM BKN050 BKN100=



000
FTUS46 KPDT 251500 AAA
TAFALW
TAF AMD
KALW 251557Z 2516/2612 20012KT P6SM VCSH SCT035 OVC050
      TEMPO 2516/2517 2SM -RA BKN035 OVC045
     FM251700 22012KT P6SM RA BKN030 OVC040
     FM260000 23014KT P6SM VCSH BKN020 OVC040
     FM260200 20014G22KT P6SM BKN025 OVC035
     FM260600 20018G25KT P6SM BKN029 BKN050=



000
FTUS46 KPDT 251500 AAA
TAFYKM
TAF AMD
KYKM 251526Z 2515/2612 33005KT P6SM BKN070 BKN110
     FM252000 30008KT P6SM BKN050 BKN120
     FM260200 27006KT P6SM SCT050 SCT200
     FM260600 27005KT 3SM BR SCT004 SCT200=



000
FTUS46 KPDT 251500 AAA
TAFRDM
TAF AMD
KRDM 251512Z 2515/2612 26014G22KT P6SM BKN040 BKN180
     FM251800 26019G28KT P6SM SCT040 BKN150 BKN200
     FM260400 16006KT P6SM BKN180=



000
FTUS46 KPDT 251500 AAB
TAFPDT
TAF AMD
KPDT 251501Z 2515/2612 22012KT P6SM VCSH BKN060 OVC070
      TEMPO 2515/2518 -RA BKN045 OVC060
     FM251900 26017G25KT P6SM VCSH BKN040 BKN050 OVC070
     FM252100 27018G28KT P6SM SCT040 BKN050 OVC080
     FM260200 24014G24KT P6SM BKN040 OVC090
     FM260600 22013KT P6SM BKN045 BKN060=



000
FTUS46 KPDT 251400 AAA
TAFALW
TAF AMD
KALW 251457Z 2515/2612 20009KT P6SM VCSH SCT035 OVC050
      TEMPO 2515/2517 -RA BKN035 OVC045
     FM251700 22012KT P6SM RA BKN030 OVC040
     FM260000 23014KT P6SM VCSH BKN020 OVC040
     FM260200 20014G22KT P6SM BKN025 OVC035
     FM260600 20018G25KT P6SM BKN029 BKN050=



000
FTUS46 KPDT 251300 AAA
TAFPDT
TAF AMD
KPDT 251353Z 2514/2612 26016G22KT P6SM VCSH SCT035 BKN050 OVC070
      TEMPO 2514/2518 RA BKN035 OVC060
     FM251800 26017G25KT P6SM VCSH BKN040 BKN050 OVC070
     FM252000 27018G28KT P6SM SCT040 BKN050 OVC080
     FM260200 24014G24KT P6SM BKN040=



000
FTUS46 KPDT 251100
TAFDLS
TAF
KDLS 251140Z 2512/2612 VRB03KT P6SM SCT035 OVC045
     FM251500 30008KT P6SM SCT030 OVC050
     FM252100 29008KT P6SM VCSH BKN050 OVC100=



000
FTUS46 KPDT 251100
TAFRDM
TAF
KRDM 251140Z 2512/2612 26018G28KT P6SM SCT030 BKN050
     FM251900 24011KT P6SM SCT035 BKN050
     FM260300 17006KT P6SM BKN100=



000
FTUS46 KPDT 251100
TAFPSC
TAF
KPSC 251140Z 2512/2612 24013KT P6SM VCSH SCT070 BKN090 OVC110
     FM251400 24007KT 6SM -RA BR BKN060 OVC080
     FM260300 24011KT P6SM SCT040 BKN060=



000
FTUS46 KPDT 251100
TAFPDT
TAF
KPDT 251140Z 2512/2612 26012G22KT P6SM -RA SCT025 BKN035
      TEMPO 2513/2516 3SM -RA BR BKN025 OVC030
     FM251800 25014G22KT P6SM VCSH SCT030 BKN050 OVC100=



000
FTUS46 KPDT 251100
TAFYKM
TAF
KYKM 251140Z 2512/2612 30005KT P6SM SCT050 BKN150
     FM251500 30008KT P6SM BKN050 BKN150=



000
FTUS46 KPDT 251100
TAFALW
TAF
KALW 251140Z 2512/2612 21010KT P6SM -RA BKN060 OVC090
      TEMPO 2515/2518 3SM RA BR BKN040 OVC060
     FM251800 23009KT P6SM -RA BKN035 OVC045
     FM252100 25011KT P6SM -RA SCT035 BKN045 OVC060=



000
FTUS46 KPDT 250900 AAB
TAFDLS
TAF AMD
KDLS 250900Z 2509/2606 VRB05KT P6SM SCT035 OVC045
      TEMPO 2509/2512 BKN030 OVC040
     FM251500 30008KT P6SM SCT030 OVC050
     FM252100 29008KT P6SM VCSH BKN050 OVC100=



000
FTUS46 KPDT 250700 AAA
TAFDLS
TAF AMD
KDLS 250734Z 2508/2606 VRB05KT P6SM SCT019 BKN024 BKN050
      TEMPO 2508/2512 BKN019 BKN024 OVC050
     FM251500 30008KT P6SM SCT030 OVC050
     FM252100 29008KT P6SM VCSH BKN050 OVC100=



000
FTUS46 KPDT 250700 AAA
TAFPSC
TAF AMD
KPSC 250729Z 2507/2606 16010KT P6SM OVC120
      TEMPO 2507/2509 23018G28KT
     FM251000 21013KT P6SM VCSH SCT060 BKN080 OVC100
     FM251400 24007KT 6SM -RA BR BKN050 OVC080
     FM260300 24011KT P6SM SCT040 BKN060=



000
FTUS46 KPDT 250500
TAFYKM
TAF
KYKM 250520Z 2506/2606 30005KT P6SM SCT050 BKN150
     FM251500 30008KT P6SM BKN050 BKN150=



000
FTUS46 KPDT 250500
TAFALW
TAF
KALW 250520Z 2506/2606 17012G20KT 6SM -RA BR SCT030 OVC050
     FM250900 22011KT 5SM -RA BR BKN020 OVC030
     FM251100 24010KT 5SM -RA BR BKN015 OVC020 PROB30 2515/2518 2SM
      RA BR BKN009 OVC015
     FM251800 23009KT P6SM -RA BKN025 OVC035
     FM252100 25011KT P6SM -RA SCT025 BKN035 OVC040=



000
FTUS46 KPDT 250500
TAFPSC
TAF
KPSC 250520Z 2506/2606 16010KT P6SM -RA SCT040 OVC060
     FM250900 21013KT P6SM VCSH SCT040 BKN070 OVC100
     FM251400 24007KT 6SM -RA BR BKN040 OVC060
     FM260300 24011KT P6SM SCT040 BKN060=



000
FTUS46 KPDT 250500
TAFRDM
TAF
KRDM 250520Z 2506/2606 21008KT P6SM SCT030 BKN050
     FM251900 24011KT P6SM SCT035 BKN050
     FM260300 17006KT P6SM BKN100=



000
FTUS46 KPDT 250500
TAFPDT
TAF
KPDT 250520Z 2506/2606 17010KT P6SM -RA SCT030 OVC040
     FM250900 22011KT 5SM -RA BR BKN025 OVC030
     FM251100 24013G23KT P6SM -RA SCT015 BKN025 OVC030
      TEMPO 2513/2516 3SM -RA BR SCT015 OVC020
     FM251800 25014G22KT P6SM VCSH SCT030 BKN050 OVC100=



000
FTUS46 KPDT 250500
TAFDLS
TAF
KDLS 250520Z 2506/2606 VRB04KT P6SM -RA OVC020
     FM251500 30008KT P6SM SCT030 OVC050
     FM252100 29008KT P6SM VCSH BKN050 OVC100=



000
FTUS46 KPDT 250400 AAA
TAFDLS
TAF AMD
KDLS 250420Z 2504/2524 VRB04KT P6SM -RA BKN025 OVC040
     FM251500 30008KT P6SM SCT030 OVC050
     FM252100 29008KT P6SM VCSH BKN050 OVC100=



000
FTUS46 KPDT 250200 AAA
TAFYKM
TAF AMD
KYKM 250259Z 2503/2524 27005KT P6SM VCSH SCT050 BKN090
     FM250600 30003KT 6SM -RA BKN030 OVC050
     FM251200 VRB03KT 6SM -RA BR BKN030 OVC050
     FM251800 VRB03KT P6SM VCSH SCT030 BKN050=



000
FTUS46 KPDT 250200 AAA
TAFPSC
TAF AMD
KPSC 250257Z 2503/2524 14010KT P6SM -RA BKN040 OVC060
     FM250900 25013KT P6SM VCSH SCT040 BKN070 OVC100
     FM251400 24007KT 6SM -RA BR BKN040 OVC060
     FM252100 24011KT P6SM SCT040 BKN060=



000
FTUS46 KPDT 242300
TAFPDT
TAF
KPDT 242331Z 2500/2524 16005KT P6SM SCT040 OVC150
     FM250300 19008KT P6SM VCSH SCT025 OVC040
     FM250500 27011KT 5SM -RA BR BKN025 OVC030
     FM251100 24010KT 5SM -RA BR SCT015 BKN025 OVC030 PROB30
      2515/2518 3SM RA BR SCT015 OVC020
     FM252000 25014G22KT P6SM VCSH BKN050 OVC100=



000
FTUS46 KPDT 242300
TAFPSC
TAF
KPSC 242331Z 2500/2524 19006KT P6SM VCSH BKN050 OVC080
     FM250200 23012KT P6SM -RA BKN040 OVC070
     FM250900 25013KT P6SM VCSH SCT040 BKN070 OVC100
     FM251400 24007KT 6SM -RA BR BKN040 OVC060
     FM252100 24011KT P6SM SCT040 BKN060=



000
FTUS46 KPDT 242300
TAFRDM
TAF
KRDM 242331Z 2500/2524 15010KT P6SM VCSH SCT030 BKN050
     FM250300 18004KT P6SM -RA SCT030 OVC050
     FM251200 18004KT 5SM -RA BR BKN025 OVC035
     FM251800 20008KT P6SM VCSH SCT025 BKN040 OVC080=



000
FTUS46 KPDT 242300
TAFYKM
TAF
KYKM 242331Z 2500/2524 27005KT P6SM VCSH SCT050 BKN090
     FM250300 30003KT 6SM -RA BKN030 OVC050
     FM250600 30003KT 4SM -RA BR BKN020 OVC030
     FM251200 VRB03KT 6SM -RA BR BKN030 OVC050
     FM251800 VRB03KT P6SM VCSH SCT030 BKN050=



000
FTUS46 KPDT 242300
TAFALW
TAF
KALW 242331Z 2500/2524 17013KT P6SM SCT050 BKN120
     FM250300 15008KT P6SM VCSH SCT025 OVC040
     FM250500 22012KT 5SM -RA BR BKN015 OVC020
     FM251100 24010KT 5SM -RA BR BKN015 OVC020 PROB30 2515/2518 2SM
      RA BR BKN009 OVC015
     FM251800 23009KT 3SM -RA BR BKN025 OVC035
     FM252100 25011KT 6SM -RA BR SCT025 BKN035 OVC040=



000
FTUS46 KPDT 242300
TAFDLS
TAF
KDLS 242331Z 2500/2524 31006KT P6SM SCT050 OVC080
     FM250300 30006KT P6SM -RA BKN040 OVC050
     FM252100 29008KT P6SM VCSH BKN050 OVC100=



    US Dept of Commerce
    National Oceanic and Atmospheric Administration
    National Weather Service
    1325 East West Highway
    Silver Spring, MD 20910
    Page Author: NWS Internet Services Team
Disclaimer
Information Quality
Credits
Glossary
Privacy Policy
Freedom of Information Act (FOIA)
About Us
Career Opportunities